KOAK/OAK METAR and TAF weather

Enter ICAO airport designator
Station Type Date Time Source
KOAK METAR 2019/09/21 20:53 UTC NOAA

KOAK 212053Z 27008KT 10SM CLR 28/09 A2992 RMK AO2 SLP130 T02830094 58019


Station Type Date Time Source
KOAK Decoded METAR 2019/09/21 20:53 UTC NOAA

METRO OAKLAND INTERNATIONAL AIRPORT , CA, United States (KOAK) 37-43N 122-14W 26M
Sep 21, 2019 - 04:53 PM EDT / 2019.09.21 2053 UTC
Wind: from the W (270 degrees) at 9 MPH (8 KT):0
Visibility: 10 mile(s):0
Sky conditions: clear
Temperature: 82.9 F (28.3 C)
Dew Point: 48.9 F (9.4 C)
Relative Humidity: 30%
Pressure (altimeter): 29.92 in. Hg (1013 hPa)
Pressure tendency: 0.06 inches (1.9 hPa) lower than three hours ago
ob: KOAK 212053Z 27008KT 10SM CLR 28/09 A2992 RMK AO2 SLP130 T02830094 58019
cycle: 21

Station Type Date Time Source
KOAK TAF 2019/09/21 18:22 UTC NOAA

TAF KOAK 211720Z 2118/2224 VRB03KT P6SM SKC
FM212000 30011KT P6SM SKC
FM220400 32005KT P6SM SKC
FM220800 VRB03KT P6SM SCT006
FM221000 VRB02KT P6SM BKN005
FM221700 26006KT P6SM FEW008 BKN250
FM222000 28010KT P6SM BKN250

Example: see airport list